Beechville, Kentucky
Current Conditions -  °F | °C
As of 5:55 PM on Friday 21 Nov 2014 (Local Time) from KGLW Reporting Station
Clear Clear  
Wind Chill: -1°   Ceiling: Unl
Heat Index:   Visibility: 10mi
Dew Point: -7°   Wind: 5mph
Humidity: 55%   Direction: 80°E
Pressure: 30.41"   Gusts: NA
Location:  36.9886°N, 85.5829°W
Report Text: KGLW 212355Z AUTO 08004KT 10SM CLR 02/M07 A3041 RMK AO2 T00151066 10083 20010
Loading
Personal Weather Stations






























Interactive Weather Map New forecast layout! Learn more

10-Day Weather Forecast

Advertisements
Track Severe Weather on mobile